Time;durP1;ratioP1;P1;durP2;ratioP2;P2;SDS_P1;SDS_P2;PMS_P1;PMS_P2;Temp;Humidity;BMP_temperature;BMP_pressure;BME280_temperature;BME280_humidity;BME280_pressure;Samples;Min_cycle;Max_cycle;Signal;HPM_P1;HPM_P2
2023/06/13 00:01:24;;;;;;;57.67;26.70;;;23.40;99.90;;;;;;5072691;28;20176;-69
2023/06/13 00:03:51;;;;;;;12.90;11.57;;;23.40;1.00;;;;;;5075176;28;20661;-68
2023/06/13 00:06:17;;;;;;;10.20;9.18;;;23.40;1.00;;;;;;5077141;28;20177;-70
2023/06/13 00:08:43;;;;;;;10.60;9.43;;;23.30;1.00;;;;;;5076935;28;20172;-68
2023/06/13 00:11:09;;;;;;;14.93;13.35;;;23.30;1.00;;;;;;5076707;28;20705;-67
2023/06/13 00:13:36;;;;;;;10.45;9.32;;;23.20;1.00;;;;;;5076897;28;20214;-70
2023/06/13 00:16:02;;;;;;;12.40;11.13;;;23.20;1.00;;;;;;5076467;28;20623;-67
2023/06/13 00:18:31;;;;;;;12.15;10.45;;;23.20;1.00;;;;;;5076792;28;20169;-68
2023/06/13 00:20:58;;;;;;;18.65;14.73;;;23.20;1.00;;;;;;5076555;28;20168;-68
2023/06/13 00:23:25;;;;;;;21.92;15.10;;;23.10;1.00;;;;;;5076727;28;20542;-67
2023/06/13 00:25:52;;;;;;;12.02;10.60;;;23.10;1.00;;;;;;5076655;28;20173;-67
2023/06/13 00:28:17;;;;;;;14.50;13.00;;;23.00;1.00;;;;;;5076519;28;20164;-68
2023/06/13 00:30:45;;;;;;;11.07;10.00;;;22.90;1.00;;;;;;5076041;28;20601;-69
2023/06/13 00:33:17;;;;;;;11.05;10.00;;;22.90;1.00;;;;;;5076561;28;20177;-67
2023/06/13 00:35:44;;;;;;;10.73;9.57;;;22.80;1.00;;;;;;5076282;28;20227;-67
2023/06/13 00:38:10;;;;;;;10.63;9.27;;;22.80;1.00;;;;;;5076499;28;20161;-68
2023/06/13 00:40:36;;;;;;;10.82;9.88;;;22.70;1.00;;;;;;5076012;28;20168;-68
2023/06/13 00:43:02;;;;;;;11.95;9.30;;;22.70;1.00;;;;;;5076073;28;20184;-68
2023/06/13 00:45:29;;;;;;;10.88;9.88;;;22.60;1.00;;;;;;5075852;28;20176;-66
2023/06/13 00:47:59;;;;;;;10.90;9.90;;;22.60;1.00;;;;;;5076053;28;20176;-68
2023/06/13 00:50:31;;;;;;;17.25;14.95;;;22.60;1.00;;;;;;5075941;28;20196;-67
2023/06/13 00:52:59;;;;;;;13.27;11.88;;;22.50;1.00;;;;;;5076201;28;20561;-68
2023/06/13 00:55:26;;;;;;;12.55;10.27;;;22.40;1.00;;;;;;5076311;28;20247;-68
2023/06/13 00:58:06;;;;;;;35.72;24.23;;;22.40;1.00;;;;;;5075935;28;20567;-68
2023/06/13 01:00:33;;;;;;;17.30;13.93;;;22.40;1.00;;;;;;5075757;28;20251;-68
2023/06/13 01:02:58;;;;;;;14.38;12.70;;;22.40;1.00;;;;;;5076156;28;20179;-68
2023/06/13 01:05:28;;;;;;;14.88;12.38;;;22.30;1.00;;;;;;5057937;28;20165;-69
2023/06/13 01:07:57;;;;;;;12.85;11.25;;;22.30;1.00;;;;;;5075830;28;20298;-70
2023/06/13 01:10:27;;;;;;;12.60;9.93;;;22.20;1.00;;;;;;5075504;28;20317;-68
2023/06/13 01:13:13;;;;;;;12.93;9.52;;;22.20;1.00;;;;;;5075677;28;20184;-68
2023/06/13 01:15:48;;;;;;;11.05;9.98;;;22.20;1.00;;;;;;5075048;28;20169;-67
2023/06/13 01:18:15;;;;;;;13.05;9.93;;;22.10;1.00;;;;;;5075827;28;20199;-67
2023/06/13 01:20:44;;;;;;;10.73;9.45;;;22.10;12.10;;;;;;5075572;28;20165;-67
2023/06/13 01:23:20;;;;;;;11.95;9.80;;;22.00;1.00;;;;;;5075618;28;20749;-70
2023/06/13 01:26:03;;;;;;;21.83;12.50;;;22.00;1.00;;;;;;5075745;28;20521;-69
2023/06/13 01:28:33;;;;;;;15.02;11.27;;;22.00;99.90;;;;;;5075019;28;20165;-67
2023/06/13 01:31:06;;;;;;;68.43;17.98;;;21.90;99.90;;;;;;5075298;28;20215;-68
2023/06/13 01:33:33;;;;;;;24.02;12.15;;;21.80;99.90;;;;;;5075383;28;20171;-68
2023/06/13 01:35:59;;;;;;;17.15;11.98;;;21.70;99.90;;;;;;5075157;28;20228;-68
2023/06/13 01:38:25;;;;;;;12.10;10.88;;;21.70;99.90;;;;;;5075372;28;20180;-67
2023/06/13 01:40:50;;;;;;;10.55;9.63;;;21.60;1.00;;;;;;5074986;28;20180;-68
2023/06/13 01:43:16;;;;;;;11.77;9.88;;;21.60;1.00;;;;;;5074865;28;20195;-67
2023/06/13 01:45:42;;;;;;;10.65;9.65;;;21.50;1.00;;;;;;5075329;28;20168;-67
2023/06/13 01:48:24;;;;;;;10.85;9.52;;;21.50;1.00;;;;;;5075194;28;20163;-67
2023/06/13 01:51:30;;;;;;;11.23;9.55;;;21.50;1.00;;;;;;5074927;28;20722;-68
2023/06/13 01:53:58;;;;;;;10.70;9.70;;;21.40;15.30;;;;;;5075086;28;20187;-69
2023/06/13 01:56:31;;;;;;;10.77;9.65;;;21.20;99.90;;;;;;5075026;28;20225;-68
2023/06/13 01:59:01;;;;;;;10.75;9.32;;;21.20;1.00;;;;;;5074611;28;20187;-67
2023/06/13 02:01:29;;;;;;;10.30;9.32;;;21.10;1.00;;;;;;5074785;28;20164;-69
2023/06/13 02:03:55;;;;;;;11.70;9.50;;;21.00;87.20;;;;;;5074770;28;20180;-67
2023/06/13 02:06:21;;;;;;;10.27;9.38;;;21.00;99.90;;;;;;5074656;28;20226;-67
2023/06/13 02:08:46;;;;;;;12.18;9.85;;;20.90;1.00;;;;;;5074757;28;20176;-68
2023/06/13 02:11:12;;;;;;;10.73;9.63;;;20.90;99.90;;;;;;5074622;28;20200;-67
2023/06/13 02:13:38;;;;;;;11.85;10.68;;;20.80;99.90;;;;;;5074249;28;20639;-68
2023/06/13 02:16:03;;;;;;;11.65;10.55;;;20.90;99.90;;;;;;5074519;28;20173;-68
2023/06/13 02:18:30;;;;;;;13.70;10.25;;;20.80;1.00;;;;;;5074835;28;20673;-68
2023/06/13 02:20:57;;;;;;;10.98;9.48;;;20.80;1.00;;;;;;5074493;28;20214;-67
2023/06/13 02:23:23;;;;;;;10.68;8.85;;;20.70;99.90;;;;;;5074439;28;20192;-67
2023/06/13 02:25:51;;;;;;;10.32;9.32;;;20.60;99.90;;;;;;5074268;28;20200;-68
2023/06/13 02:28:17;;;;;;;10.38;9.38;;;20.50;1.00;;;;;;5073259;28;20206;-68
2023/06/13 02:30:44;;;;;;;11.07;9.32;;;20.30;99.90;;;;;;5074046;28;20204;-68
2023/06/13 02:33:10;;;;;;;14.65;9.60;;;20.30;1.00;;;;;;5074209;28;20183;-68
2023/06/13 02:35:36;;;;;;;10.13;9.13;;;20.20;99.90;;;;;;5074091;28;20224;-68
2023/06/13 02:38:06;;;;;;;10.48;9.48;;;20.20;1.00;;;;;;5074104;28;20172;-67
2023/06/13 02:40:32;;;;;;;10.88;9.77;;;20.10;99.90;;;;;;5073823;28;20176;-67
2023/06/13 02:42:58;;;;;;;12.38;9.80;;;20.00;99.90;;;;;;5073460;28;20199;-67
2023/06/13 02:45:24;;;;;;;12.75;9.45;;;19.90;35.60;;;;;;5073860;28;20173;-68
2023/06/13 02:47:50;;;;;;;12.27;9.13;;;19.90;1.00;;;;;;5073841;28;20176;-67
2023/06/13 02:50:16;;;;;;;13.95;9.60;;;19.80;1.00;;;;;;5073998;28;20204;-68
2023/06/13 02:52:42;;;;;;;11.38;10.02;;;19.90;68.10;;;;;;5073971;28;20165;-68
2023/06/13 02:55:08;;;;;;;12.35;9.13;;;19.80;1.00;;;;;;5073770;28;20526;-68
2023/06/13 02:57:36;;;;;;;12.40;9.80;;;19.70;1.00;;;;;;5073393;28;20161;-68
2023/06/13 03:00:07;;;;;;;10.70;9.60;;;19.70;99.90;;;;;;5073317;28;20211;-66
2023/06/13 03:02:32;;;;;;;11.43;9.45;;;19.60;99.90;;;;;;5073897;28;20179;-68
2023/06/13 03:04:58;;;;;;;12.77;9.48;;;19.60;1.00;;;;;;5073606;28;20168;-68
2023/06/13 03:07:23;;;;;;;11.10;9.15;;;19.60;1.00;;;;;;5073497;28;20208;-67
2023/06/13 03:09:49;;;;;;;12.73;9.48;;;19.50;1.00;;;;;;5073492;28;20168;-67
2023/06/13 03:12:15;;;;;;;12.88;9.77;;;19.60;1.00;;;;;;5073328;28;20209;-67
2023/06/13 03:14:41;;;;;;;12.30;10.02;;;19.60;99.90;;;;;;5073059;28;20173;-68
2023/06/13 03:17:06;;;;;;;11.57;10.23;;;19.70;99.90;;;;;;5073445;28;20519;-67
2023/06/13 03:19:32;;;;;;;13.13;9.48;;;19.80;1.00;;;;;;5072982;28;20682;-68
2023/06/13 03:21:58;;;;;;;13.13;9.48;;;19.80;1.00;;;;;;5073228;28;20168;-68
2023/06/13 03:24:23;;;;;;;10.30;9.32;;;19.80;1.00;;;;;;5072953;28;20259;-67
2023/06/13 03:26:49;;;;;;;12.60;8.98;;;19.80;99.90;;;;;;5073362;28;20173;-68
2023/06/13 03:29:15;;;;;;;11.48;9.27;;;19.80;99.90;;;;;;5073124;28;20177;-68
2023/06/13 03:31:40;;;;;;;11.15;10.00;;;19.80;1.00;;;;;;5072967;28;20251;-69
2023/06/13 03:34:06;;;;;;;10.13;9.23;;;19.80;99.90;;;;;;5072975;28;20169;-69
2023/06/13 03:36:34;;;;;;;10.73;9.40;;;19.70;99.90;;;;;;5072961;28;20220;-68
2023/06/13 03:39:00;;;;;;;10.20;9.25;;;19.80;99.90;;;;;;5072233;28;20225;-67
2023/06/13 03:41:26;;;;;;;11.10;10.00;;;19.70;1.00;;;;;;5072818;28;20172;-68
2023/06/13 03:43:52;;;;;;;17.08;9.57;;;19.70;1.00;;;;;;5072960;28;20219;-67
2023/06/13 03:46:17;;;;;;;11.27;9.10;;;19.80;99.90;;;;;;5072779;28;20639;-67
2023/06/13 03:48:43;;;;;;;13.32;9.73;;;19.80;99.90;;;;;;5072787;28;20203;-66
2023/06/13 03:51:09;;;;;;;13.63;9.75;;;20.00;1.00;;;;;;5072683;28;20243;-68
2023/06/13 03:53:34;;;;;;;10.70;9.60;;;20.20;99.90;;;;;;5072428;28;20167;-68
2023/06/13 03:56:00;;;;;;;15.45;9.32;;;20.30;1.00;;;;;;5072997;28;20176;-68
2023/06/13 03:58:26;;;;;;;12.05;9.60;;;20.30;1.00;;;;;;5072421;28;20553;-68
2023/06/13 04:00:54;;;;;;;11.68;10.27;;;20.40;99.90;;;;;;5072468;28;20196;-68
2023/06/13 04:03:20;;;;;;;14.02;9.75;;;20.60;99.90;;;;;;5072622;28;20175;-69
2023/06/13 04:05:45;;;;;;;12.80;9.85;;;20.90;99.90;;;;;;5072570;28;20521;-67
2023/06/13 04:08:11;;;;;;;10.23;9.15;;;21.00;1.00;;;;;;5072541;28;20167;-69
2023/06/13 04:10:37;;;;;;;14.65;10.02;;;21.10;99.90;;;;;;5071928;28;20223;-67
2023/06/13 04:13:02;;;;;;;10.63;9.60;;;21.20;1.00;;;;;;5072513;28;20168;-69
2023/06/13 04:15:28;;;;;;;13.50;10.05;;;21.40;1.00;;;;;;5072682;28;20263;-68
2023/06/13 04:17:55;;;;;;;15.27;9.90;;;21.70;99.90;;;;;;5072367;28;20165;-69
2023/06/13 04:20:24;;;;;;;10.30;9.35;;;22.20;1.00;;;;;;5072741;28;20180;-69
2023/06/13 04:22:51;;;;;;;14.50;9.70;;;22.60;99.90;;;;;;5071928;28;20199;-70
2023/06/13 04:25:17;;;;;;;10.75;9.27;;;23.00;96.10;;;;;;5072586;28;20172;-69
2023/06/13 04:27:44;;;;;;;9.95;8.93;;;22.60;27.80;;;;;;5072235;28;20657;-68
2023/06/13 04:30:12;;;;;;;11.15;9.93;;;22.10;99.90;;;;;;5072236;28;20552;-68
2023/06/13 04:32:39;;;;;;;11.15;9.30;;;21.80;99.90;;;;;;5071893;28;20176;-68
2023/06/13 04:35:05;;;;;;;10.15;9.20;;;22.10;99.90;;;;;;5071608;28;20697;-69
2023/06/13 04:37:31;;;;;;;10.18;9.32;;;22.30;99.90;;;;;;5071916;28;20181;-68
2023/06/13 04:39:57;;;;;;;12.52;8.88;;;22.30;99.90;;;;;;5071895;28;20173;-68
2023/06/13 04:42:27;;;;;;;10.98;9.70;;;22.10;99.90;;;;;;5071494;28;20218;-70
2023/06/13 04:44:59;;;;;;;10.82;9.38;;;22.00;99.90;;;;;;5071759;28;20222;-68
2023/06/13 04:47:27;;;;;;;13.43;9.20;;;22.20;99.90;;;;;;5071668;28;20169;-68
2023/06/13 04:49:58;;;;;;;10.40;9.40;;;22.70;99.90;;;;;;5054590;28;20260;-69
2023/06/13 04:52:29;;;;;;;12.20;8.90;;;23.10;1.00;;;;;;5074438;28;20185;-69
2023/06/13 04:54:56;;;;;;;11.55;9.77;;;23.10;1.00;;;;;;5075336;28;20167;-69
2023/06/13 04:57:22;;;;;;;9.98;8.98;;;23.70;1.00;;;;;;5075321;28;20173;-68
2023/06/13 04:59:48;;;;;;;13.18;9.50;;;24.10;1.00;;;;;;5074900;28;20206;-69
2023/06/13 05:02:16;;;;;;;10.48;8.93;;;24.40;1.00;;;;;;5075148;28;20257;-70
2023/06/13 05:04:42;;;;;;;12.27;9.43;;;24.30;1.00;;;;;;5075082;28;20508;-70
2023/06/13 05:07:08;;;;;;;11.43;8.98;;;25.10;99.90;;;;;;5074733;28;20184;-69
2023/06/13 05:09:34;;;;;;;12.45;9.60;;;25.50;99.90;;;;;;5075115;28;20180;-69
2023/06/13 05:12:00;;;;;;;10.07;9.13;;;26.30;99.90;;;;;;5075214;28;20208;-69
2023/06/13 05:14:27;;;;;;;11.07;8.93;;;26.50;99.90;;;;;;5074908;28;20164;-70
2023/06/13 05:16:53;;;;;;;11.55;8.50;;;26.40;99.90;;;;;;5074544;28;20180;-70
2023/06/13 05:19:19;;;;;;;9.73;8.88;;;26.20;99.90;;;;;;5074853;28;20169;-71
2023/06/13 05:21:46;;;;;;;10.20;9.20;;;25.70;99.90;;;;;;5074537;28;20568;-70
2023/06/13 05:24:13;;;;;;;11.05;8.75;;;25.50;99.90;;;;;;5074263;28;20160;-72
2023/06/13 05:26:39;;;;;;;9.98;8.70;;;25.30;99.90;;;;;;5074447;28;20172;-69
2023/06/13 05:29:05;;;;;;;9.00;8.25;;;25.10;99.90;;;;;;5073750;28;20607;-69
2023/06/13 05:31:33;;;;;;;9.40;8.43;;;24.80;99.90;;;;;;5074054;28;20217;-70
2023/06/13 05:34:00;;;;;;;10.20;9.20;;;24.50;99.90;;;;;;5074481;28;20268;-71
2023/06/13 05:36:26;;;;;;;12.65;8.68;;;24.60;99.90;;;;;;5073765;28;20220;-69
2023/06/13 05:38:54;;;;;;;13.73;8.55;;;25.20;99.90;;;;;;5073767;28;20522;-70
2023/06/13 05:41:19;;;;;;;14.55;9.23;;;25.80;99.90;;;;;;5073133;28;20236;-71
2023/06/13 05:43:45;;;;;;;12.98;9.23;;;25.40;99.90;;;;;;5055277;28;20196;-70
2023/06/13 05:46:13;;;;;;;14.52;9.30;;;26.60;99.90;;;;;;5074347;28;20206;-69
2023/06/13 05:48:39;;;;;;;8.77;7.93;;;28.10;99.90;;;;;;5073758;28;20241;-69
2023/06/13 05:51:05;;;;;;;9.77;8.45;;;28.70;99.90;;;;;;5073034;28;20255;-71
2023/06/13 05:53:31;;;;;;;11.93;7.95;;;29.40;99.90;;;;;;5073617;28;20218;-70
2023/06/13 05:55:56;;;;;;;9.68;8.88;;;29.60;76.30;;;;;;5073351;28;20184;-69
2023/06/13 05:58:22;;;;;;;8.77;7.93;;;29.50;59.90;;;;;;5073123;28;20515;-71
2023/06/13 06:00:48;;;;;;;8.57;7.60;;;29.00;49.20;;;;;;5072858;28;20168;-69
2023/06/13 06:03:14;;;;;;;8.75;7.80;;;29.00;50.60;;;;;;5073028;28;20619;-69
2023/06/13 06:05:39;;;;;;;9.20;8.27;;;27.40;74.20;;;;;;5073231;28;20172;-70
2023/06/13 06:08:05;;;;;;;9.20;8.32;;;26.40;94.90;;;;;;5073064;28;20172;-70
2023/06/13 06:10:31;;;;;;;10.18;8.55;;;26.00;99.90;;;;;;5072174;28;20668;-71
2023/06/13 06:12:56;;;;;;;11.13;8.68;;;25.30;99.90;;;;;;5072927;28;20498;-69
2023/06/13 06:15:22;;;;;;;11.18;8.90;;;25.90;99.90;;;;;;5073447;28;20238;-70
2023/06/13 06:17:48;;;;;;;10.25;8.40;;;26.10;99.90;;;;;;5073112;28;20620;-70
2023/06/13 06:20:14;;;;;;;9.68;8.20;;;25.80;99.90;;;;;;5072721;28;20172;-68
2023/06/13 06:22:39;;;;;;;9.68;8.50;;;25.60;99.90;;;;;;5073131;28;20251;-70
2023/06/13 06:25:08;;;;;;;10.32;7.90;;;26.90;99.90;;;;;;5072903;28;20628;-71
2023/06/13 06:27:34;;;;;;;10.85;8.02;;;27.40;99.90;;;;;;5072813;28;20521;-69
2023/06/13 06:29:59;;;;;;;9.57;7.80;;;28.80;96.20;;;;;;5072446;28;20283;-70
2023/06/13 06:32:25;;;;;;;11.18;8.40;;;29.90;59.70;;;;;;5073112;28;20177;-71
2023/06/13 06:34:51;;;;;;;10.45;7.88;;;30.10;38.50;;;;;;5071504;28;20650;-72
2023/06/13 06:37:16;;;;;;;11.20;7.70;;;30.50;16.80;;;;;;5034024;28;20221;-70
2023/06/13 06:39:42;;;;;;;9.23;7.82;;;30.30;12.00;;;;;;5052600;28;20235;-71
2023/06/13 06:42:08;;;;;;;8.40;7.60;;;30.30;14.30;;;;;;5052944;28;20664;-71
2023/06/13 06:44:33;;;;;;;8.43;7.50;;;29.60;13.60;;;;;;5052628;28;20554;-69
2023/06/13 06:46:59;;;;;;;8.40;7.28;;;29.70;12.60;;;;;;5052450;28;20173;-71
2023/06/13 06:49:24;;;;;;;8.00;7.20;;;29.60;10.80;;;;;;5051967;28;20184;-70
2023/06/13 06:51:52;;;;;;;8.15;7.35;;;29.90;7.20;;;;;;5052568;28;20221;-71
2023/06/13 06:54:17;;;;;;;10.88;7.68;;;30.20;2.00;;;;;;5053279;28;20173;-70
2023/06/13 06:56:43;;;;;;;11.57;7.55;;;30.20;2.00;;;;;;5052687;28;20226;-70
2023/06/13 06:59:08;;;;;;;8.50;7.68;;;30.70;1.00;;;;;;5051864;28;20181;-70
2023/06/13 07:01:35;;;;;;;8.30;7.40;;;30.30;1.00;;;;;;5052386;28;20169;-69
2023/06/13 07:04:02;;;;;;;11.70;7.20;;;30.30;1.00;;;;;;5052395;28;20173;-69
2023/06/13 07:06:29;;;;;;;7.93;7.32;;;29.40;1.00;;;;;;5052001;28;20169;-69
2023/06/13 07:08:54;;;;;;;10.88;7.18;;;27.90;11.40;;;;;;5052110;28;20211;-71
2023/06/13 07:11:20;;;;;;;8.20;7.45;;;28.90;9.80;;;;;;5052447;28;20691;-69
2023/06/13 07:13:46;;;;;;;7.57;6.85;;;29.00;8.30;;;;;;5052308;28;20176;-70
2023/06/13 07:16:11;;;;;;;8.05;7.25;;;29.60;5.40;;;;;;5052413;28;20255;-70
2023/06/13 07:18:37;;;;;;;8.32;7.32;;;30.20;1.00;;;;;;5052116;28;20560;-71
2023/06/13 07:21:02;;;;;;;7.82;7.03;;;29.40;1.00;;;;;;5050581;28;20632;-69
2023/06/13 07:23:28;;;;;;;8.27;7.47;;;30.00;1.00;;;;;;5051740;28;20183;-70
2023/06/13 07:25:54;;;;;;;11.43;7.40;;;30.30;1.00;;;;;;5052570;28;20644;-69
2023/06/13 07:28:20;;;;;;;8.18;6.82;;;31.60;1.00;;;;;;5052633;28;20157;-70
2023/06/13 07:30:46;;;;;;;9.75;6.80;;;31.40;1.00;;;;;;5052209;28;20216;-70
2023/06/13 07:33:12;;;;;;;11.57;6.40;;;31.40;1.00;;;;;;5052074;28;20165;-70
2023/06/13 07:35:38;;;;;;;7.25;6.22;;;31.20;1.00;;;;;;5057566;28;20224;-69
2023/06/13 07:38:03;;;;;;;9.13;6.78;;;31.10;1.00;;;;;;5071399;28;20273;-71
2023/06/13 07:40:29;;;;;;;7.38;6.65;;;31.60;1.00;;;;;;5072029;28;20248;-70
2023/06/13 07:42:55;;;;;;;9.10;6.40;;;31.50;1.00;;;;;;5072091;28;20197;-70
2023/06/13 07:45:20;;;;;;;6.68;6.07;;;31.00;1.00;;;;;;5071807;28;20218;-70
2023/06/13 07:47:46;;;;;;;6.88;6.28;;;30.00;1.00;;;;;;5072102;28;20173;-69
2023/06/13 07:50:11;;;;;;;7.47;6.40;;;29.10;1.00;;;;;;5071550;28;20164;-71
2023/06/13 07:52:37;;;;;;;6.85;6.07;;;28.90;1.00;;;;;;5072333;28;20527;-69
2023/06/13 07:55:04;;;;;;;9.55;6.63;;;29.70;1.00;;;;;;5072128;28;20556;-70
2023/06/13 07:57:29;;;;;;;12.73;6.07;;;30.20;1.00;;;;;;5071168;28;20719;-72
2023/06/13 07:59:55;;;;;;;6.63;5.95;;;30.40;1.00;;;;;;5068028;28;20255;-72
2023/06/13 08:02:22;;;;;;;6.57;5.90;;;30.20;1.00;;;;;;5060641;28;20670;-70
2023/06/13 08:04:48;;;;;;;6.40;5.90;;;30.00;1.00;;;;;;5061334;28;20202;-70
2023/06/13 08:07:13;;;;;;;5.93;5.43;;;30.30;1.00;;;;;;5052065;28;20189;-72
2023/06/13 08:09:39;;;;;;;6.85;6.07;;;30.00;1.00;;;;;;5046186;28;20176;-71
2023/06/13 08:12:06;;;;;;;6.10;5.60;;;30.60;1.00;;;;;;5071542;28;20338;-72
2023/06/13 08:14:32;;;;;;;6.47;5.75;;;31.70;1.00;;;;;;5071276;28;20218;-72
2023/06/13 08:16:57;;;;;;;8.60;5.60;;;32.50;1.00;;;;;;5053721;28;20695;-71
2023/06/13 08:19:23;;;;;;;7.07;5.70;;;33.20;1.00;;;;;;5053756;28;20165;-71
2023/06/13 08:21:48;;;;;;;6.50;5.50;;;33.80;1.00;;;;;;5071832;28;20243;-71
2023/06/13 08:24:14;;;;;;;6.70;5.50;;;33.00;1.00;;;;;;5071211;28;20169;-70
2023/06/13 08:26:40;;;;;;;7.68;5.65;;;33.20;1.00;;;;;;5074620;28;20176;-71
2023/06/13 08:29:06;;;;;;;5.78;5.25;;;33.20;1.00;;;;;;5074625;28;20626;-69
2023/06/13 08:31:32;;;;;;;5.85;5.22;;;32.50;1.00;;;;;;5075864;28;20562;-70
2023/06/13 08:34:01;;;;;;;6.25;5.60;;;32.50;1.00;;;;;;5075065;28;20168;-70
2023/06/13 08:36:27;;;;;;;6.85;5.72;;;33.10;1.00;;;;;;5075482;28;20224;-69
2023/06/13 08:38:56;;;;;;;5.72;5.32;;;33.50;1.00;;;;;;5075024;28;20195;-69
2023/06/13 08:41:23;;;;;;;5.50;5.00;;;33.70;1.00;;;;;;5074879;28;20188;-71
2023/06/13 08:43:49;;;;;;;6.10;5.60;;;33.50;1.00;;;;;;5074974;28;20192;-70
2023/06/13 08:46:15;;;;;;;10.18;5.70;;;34.30;1.00;;;;;;5074888;28;20176;-69
2023/06/13 08:48:42;;;;;;;6.85;6.22;;;34.00;1.00;;;;;;5075065;28;20172;-71
2023/06/13 08:51:13;;;;;;;7.60;5.40;;;34.30;1.00;;;;;;5074972;28;20208;-71
2023/06/13 08:53:49;;;;;;;5.78;5.30;;;34.10;1.00;;;;;;5075222;28;20650;-69
2023/06/13 08:56:15;;;;;;;6.65;5.97;;;32.30;1.00;;;;;;5074449;28;20179;-69
2023/06/13 08:58:45;;;;;;;6.03;5.47;;;32.30;1.00;;;;;;5073676;28;20179;-68
2023/06/13 09:01:12;;;;;;;5.90;5.50;;;33.40;1.00;;;;;;5074821;28;20215;-71
2023/06/13 09:03:38;;;;;;;5.90;5.40;;;33.50;1.00;;;;;;5074572;28;20248;-70
2023/06/13 09:06:05;;;;;;;7.05;6.10;;;33.80;1.00;;;;;;5075379;28;20179;-71
2023/06/13 09:08:32;;;;;;;7.30;5.72;;;32.30;1.00;;;;;;5075206;28;20168;-68
2023/06/13 09:10:59;;;;;;;8.45;5.60;;;32.20;1.00;;;;;;5074712;28;20235;-69
2023/06/13 09:13:28;;;;;;;6.38;5.78;;;32.70;1.00;;;;;;5074215;28;20172;-70
2023/06/13 09:15:53;;;;;;;6.38;5.93;;;32.70;1.00;;;;;;5075249;28;20278;-69
2023/06/13 09:18:19;;;;;;;7.20;5.72;;;33.10;1.00;;;;;;5074319;28;20183;-70
2023/06/13 09:20:45;;;;;;;6.07;5.47;;;33.70;1.00;;;;;;5081224;28;20173;-70
2023/06/13 09:23:17;;;;;;;5.95;5.32;;;33.80;1.00;;;;;;5075290;28;20165;-70
2023/06/13 09:25:46;;;;;;;6.70;5.90;;;34.60;1.00;;;;;;5074650;28;20239;-71
2023/06/13 09:28:37;;;;;;;7.72;5.75;;;34.50;1.00;;;;;;5074308;28;20695;-71
2023/06/13 09:31:03;;;;;;;6.28;5.75;;;35.00;1.00;;;;;;5073636;28;20208;-69
2023/06/13 09:33:29;;;;;;;6.15;5.65;;;34.70;1.00;;;;;;5073781;28;20167;-71
2023/06/13 09:35:55;;;;;;;7.28;5.82;;;34.20;1.00;;;;;;5073498;28;20258;-70
2023/06/13 09:38:25;;;;;;;6.97;5.80;;;33.50;1.00;;;;;;5074288;28;20529;-71
2023/06/13 09:40:55;;;;;;;6.30;5.70;;;33.50;1.00;;;;;;5074240;28;20524;-71
2023/06/13 09:43:22;;;;;;;9.52;5.80;;;34.10;1.00;;;;;;5073486;28;20246;-70
2023/06/13 09:45:50;;;;;;;5.72;5.32;;;33.80;1.00;;;;;;5074423;28;20200;-70
2023/06/13 09:48:17;;;;;;;8.95;5.90;;;32.60;1.00;;;;;;5073537;28;20226;-70
2023/06/13 09:50:43;;;;;;;8.93;5.55;;;33.40;1.00;;;;;;5074273;28;20200;-70
2023/06/13 09:53:09;;;;;;;5.88;5.47;;;33.70;1.00;;;;;;5073941;28;20526;-71
2023/06/13 09:55:36;;;;;;;9.25;6.10;;;34.50;1.00;;;;;;5073982;28;20211;-70
2023/06/13 09:58:03;;;;;;;5.55;5.05;;;34.70;1.00;;;;;;5074066;28;20172;-70
2023/06/13 10:00:29;;;;;;;6.57;6.03;;;34.30;1.00;;;;;;5074127;28;20184;-70
2023/06/13 10:02:58;;;;;;;6.00;5.60;;;33.30;1.00;;;;;;5071737;28;20196;-71
2023/06/13 10:05:24;;;;;;;6.45;5.80;;;33.40;1.00;;;;;;5073706;28;20255;-68
2023/06/13 10:07:53;;;;;;;6.03;5.43;;;33.20;1.00;;;;;;5073584;28;20684;-69
2023/06/13 10:10:20;;;;;;;6.57;5.78;;;32.60;1.00;;;;;;5073254;28;20169;-69
2023/06/13 10:12:53;;;;;;;10.30;6.25;;;30.40;1.00;;;;;;5073286;28;20172;-69
2023/06/13 10:15:47;;;;;;;6.78;6.00;;;30.90;1.00;;;;;;5073815;28;20164;-69
2023/06/13 10:18:15;;;;;;;7.40;6.70;;;31.70;1.00;;;;;;5064083;28;20191;-72
2023/06/13 10:20:44;;;;;;;9.20;7.15;;;32.20;1.00;;;;;;5073313;28;20169;-70
2023/06/13 10:23:13;;;;;;;6.50;5.85;;;33.20;1.00;;;;;;5055513;28;20518;-70
2023/06/13 10:25:40;;;;;;;6.05;5.50;;;32.50;1.00;;;;;;5072951;28;20168;-71
2023/06/13 10:28:26;;;;;;;5.65;5.00;;;32.50;1.00;;;;;;5055681;28;20362;-71
2023/06/13 10:30:57;;;;;;;8.02;6.88;;;32.80;1.00;;;;;;5032217;28;20220;-71
2023/06/13 10:33:46;;;;;;;6.20;5.80;;;32.20;1.00;;;;;;5070712;28;20176;-69
2023/06/13 10:36:41;;;;;;;9.20;5.95;;;31.60;1.00;;;;;;5059048;28;20231;-69
2023/06/13 10:39:35;;;;;;;6.22;5.63;;;30.90;1.00;;;;;;5072755;28;20179;-70
2023/06/13 10:42:11;;;;;;;7.38;6.68;;;30.50;1.00;;;;;;5073132;28;20188;-70
2023/06/13 10:44:58;;;;;;;6.50;5.90;;;30.40;1.00;;;;;;5072989;28;20188;-69
2023/06/13 10:47:29;;;;;;;6.18;5.60;;;31.00;1.00;;;;;;5071951;28;20215;-70
2023/06/13 10:49:56;;;;;;;5.93;5.43;;;32.00;1.00;;;;;;5073292;28;20172;-72
2023/06/13 10:52:23;;;;;;;5.85;5.45;;;31.20;1.00;;;;;;5073044;28;20215;-71
2023/06/13 10:54:53;;;;;;;7.57;6.22;;;31.50;1.00;;;;;;5072195;28;20176;-71
2023/06/13 10:57:19;;;;;;;6.72;6.13;;;31.90;1.00;;;;;;5072982;28;20177;-71
2023/06/13 10:59:47;;;;;;;6.30;5.70;;;31.70;1.00;;;;;;5054598;28;20259;-71
2023/06/13 11:02:15;;;;;;;7.03;6.15;;;32.30;1.00;;;;;;5072073;28;20234;-71
2023/06/13 11:04:48;;;;;;;10.57;6.15;;;32.30;1.00;;;;;;5072465;28;20176;-71
2023/06/13 11:07:23;;;;;;;6.30;5.80;;;31.90;1.00;;;;;;5072285;28;20173;-71
2023/06/13 11:10:10;;;;;;;6.75;5.30;;;32.20;1.00;;;;;;5053869;28;20172;-71
2023/06/13 11:12:36;;;;;;;9.18;6.38;;;31.90;1.00;;;;;;5072403;28;20196;-71
2023/06/13 11:15:03;;;;;;;6.40;5.80;;;31.40;1.00;;;;;;5072809;28;20165;-70
2023/06/13 11:17:29;;;;;;;6.32;5.82;;;31.50;1.00;;;;;;5071260;28;20251;-69
2023/06/13 11:19:57;;;;;;;6.80;5.55;;;31.90;1.00;;;;;;5070860;28;20251;-70
2023/06/13 11:22:23;;;;;;;6.45;5.85;;;32.10;1.00;;;;;;5069895;28;20188;-70
2023/06/13 11:24:52;;;;;;;6.13;5.47;;;32.10;1.00;;;;;;5053733;28;20242;-69
2023/06/13 11:27:18;;;;;;;8.32;7.53;;;31.90;1.00;;;;;;5071064;28;20274;-70
2023/06/13 11:29:44;;;;;;;6.47;5.90;;;31.10;1.00;;;;;;5053493;28;20579;-70
2023/06/13 11:32:11;;;;;;;9.43;6.22;;;30.80;1.00;;;;;;5070873;28;20204;-70
2023/06/13 11:34:51;;;;;;;5.88;5.38;;;30.80;1.00;;;;;;5071436;28;20596;-67
2023/06/13 11:37:44;;;;;;;7.25;5.40;;;30.90;1.00;;;;;;5071580;28;20219;-69
2023/06/13 11:40:26;;;;;;;5.85;5.40;;;31.10;1.00;;;;;;5072066;28;20187;-69
2023/06/13 11:42:52;;;;;;;6.03;5.63;;;30.00;1.00;;;;;;5072028;28;20210;-68
2023/06/13 11:45:22;;;;;;;6.18;5.63;;;29.80;1.00;;;;;;5071389;28;20180;-67
2023/06/13 11:48:02;;;;;;;6.32;5.75;;;30.30;1.00;;;;;;5071795;28;20164;-70
2023/06/13 11:50:27;;;;;;;6.18;5.60;;;30.40;1.00;;;;;;5070202;28;20199;-71
2023/06/13 11:53:07;;;;;;;7.22;6.47;;;30.40;1.00;;;;;;5071364;28;20603;-72
2023/06/13 11:55:32;;;;;;;10.60;9.38;;;29.80;1.00;;;;;;5055961;28;20720;-71
2023/06/13 11:57:58;;;;;;;6.00;5.50;;;29.30;1.00;;;;;;5071565;28;20180;-70
2023/06/13 12:00:27;;;;;;;7.43;5.82;;;29.30;1.00;;;;;;5070398;28;20593;-70
2023/06/13 12:02:54;;;;;;;6.70;6.00;;;29.80;1.00;;;;;;5065769;28;20184;-73
2023/06/13 12:05:19;;;;;;;6.65;5.63;;;30.20;1.00;;;;;;5074516;28;20183;-73
2023/06/13 12:07:45;;;;;;;6.00;5.60;;;29.90;1.00;;;;;;5075172;28;20674;-73
2023/06/13 12:10:15;;;;;;;6.13;5.50;;;29.70;1.00;;;;;;5073534;28;20187;-72
2023/06/13 12:12:41;;;;;;;6.15;5.57;;;29.30;1.00;;;;;;5057369;28;20181;-73
2023/06/13 12:15:13;;;;;;;6.03;5.60;;;29.00;1.00;;;;;;5075153;28;20169;-72
2023/06/13 12:17:59;;;;;;;7.07;6.38;;;29.20;1.00;;;;;;5074617;28;20576;-72
2023/06/13 12:20:25;;;;;;;6.32;5.82;;;29.20;1.00;;;;;;5073308;28;20172;-73
2023/06/13 12:22:58;;;;;;;6.90;6.00;;;29.40;1.00;;;;;;5074856;28;20176;-73
2023/06/13 12:25:28;;;;;;;5.68;5.28;;;29.60;1.00;;;;;;5075452;28;20161;-71
2023/06/13 12:27:55;;;;;;;6.15;5.75;;;29.10;1.00;;;;;;5068594;28;20249;-74
2023/06/13 12:30:21;;;;;;;6.45;5.85;;;29.30;1.00;;;;;;5074120;28;20314;-73
2023/06/13 12:32:48;;;;;;;9.35;6.30;;;28.90;1.00;;;;;;5075612;28;20255;-70
2023/06/13 12:35:19;;;;;;;6.85;6.20;;;29.10;1.00;;;;;;5074528;28;20169;-71
2023/06/13 12:37:54;;;;;;;8.05;6.35;;;29.30;1.00;;;;;;5074850;28;20214;-72
2023/06/13 12:40:29;;;;;;;8.48;6.00;;;29.60;1.00;;;;;;5074997;28;20247;-71
2023/06/13 12:42:56;;;;;;;6.80;6.20;;;30.00;1.00;;;;;;5074289;28;20193;-71
2023/06/13 12:45:22;;;;;;;7.60;5.82;;;29.60;1.00;;;;;;5074803;28;20171;-71
2023/06/13 12:47:47;;;;;;;6.30;5.78;;;29.60;1.00;;;;;;5075385;28;20240;-71
2023/06/13 12:50:13;;;;;;;6.85;6.20;;;29.50;1.00;;;;;;5072780;28;20180;-69
2023/06/13 12:52:39;;;;;;;7.28;5.85;;;29.30;1.00;;;;;;5074272;28;20208;-71